Time;durP1;ratioP1;P1;durP2;ratioP2;P2;SDS_P1;SDS_P2;PMS_P1;PMS_P2;Temp;Humidity;BMP_temperature;BMP_pressure;BME280_temperature;BME280_humidity;BME280_pressure;Samples;Min_cycle;Max_cycle;Signal;HPM_P1;HPM_P2
2021/10/09 00:00:55;;;;;;;31.58;16.48;;;11.30;91.20;;;;;;4963080;28;20050;-60
2021/10/09 00:03:22;;;;;;;27.40;14.82;;;11.40;91.20;;;;;;4983425;28;20049;-60
2021/10/09 00:05:49;;;;;;;27.67;16.17;;;11.30;91.10;;;;;;4963326;28;20070;-61
2021/10/09 00:08:17;;;;;;;24.35;15.60;;;11.30;91.20;;;;;;4986369;28;20110;-60
2021/10/09 00:10:45;;;;;;;23.55;15.13;;;11.30;91.20;;;;;;4960218;28;20068;-60
2021/10/09 00:13:11;;;;;;;27.02;14.40;;;11.20;91.20;;;;;;4960741;28;20093;-60
2021/10/09 00:15:38;;;;;;;26.48;15.48;;;11.30;91.40;;;;;;4966368;28;20046;-67
2021/10/09 00:18:05;;;;;;;25.73;15.63;;;11.30;91.50;;;;;;4978601;28;20387;-60
2021/10/09 00:20:32;;;;;;;26.02;15.50;;;11.30;91.50;;;;;;4974663;28;20054;-62
2021/10/09 00:23:00;;;;;;;23.65;15.63;;;11.30;91.60;;;;;;4963557;28;20047;-60
2021/10/09 00:25:27;;;;;;;34.22;17.77;;;11.40;91.70;;;;;;4963581;28;20526;-60
2021/10/09 00:27:54;;;;;;;41.15;20.08;;;11.40;91.70;;;;;;4984408;28;20070;-60
2021/10/09 00:30:20;;;;;;;47.80;22.40;;;11.50;91.80;;;;;;4981580;28;20100;-62
2021/10/09 00:32:47;;;;;;;54.38;24.45;;;11.60;91.80;;;;;;4976777;28;20054;-60
2021/10/09 00:35:14;;;;;;;81.70;25.92;;;11.60;91.80;;;;;;4980338;28;20055;-61
2021/10/09 00:37:41;;;;;;;106.78;29.85;;;11.70;92.00;;;;;;4976080;28;20053;-60
2021/10/09 00:40:08;;;;;;;67.43;29.98;;;11.70;92.20;;;;;;4964567;28;20061;-59
2021/10/09 00:42:35;;;;;;;66.10;26.55;;;11.70;92.30;;;;;;4964731;28;20051;-60
2021/10/09 00:45:02;;;;;;;80.15;26.67;;;11.70;92.30;;;;;;4979466;28;20054;-61
2021/10/09 00:47:29;;;;;;;81.32;28.25;;;11.70;92.40;;;;;;4981208;28;20050;-60
2021/10/09 00:49:56;;;;;;;68.85;25.83;;;11.80;92.30;;;;;;4965123;28;20506;-60
2021/10/09 00:52:24;;;;;;;103.85;29.10;;;11.80;92.30;;;;;;4978820;28;20058;-61
2021/10/09 00:54:51;;;;;;;105.20;30.65;;;11.80;92.50;;;;;;4977620;28;20043;-60
2021/10/09 00:57:19;;;;;;;152.10;29.52;;;11.80;92.60;;;;;;4983101;28;20050;-60
2021/10/09 00:59:45;;;;;;;167.57;28.80;;;11.90;92.80;;;;;;4981842;28;20046;-60
2021/10/09 01:02:12;;;;;;;198.00;29.50;;;11.90;92.80;;;;;;4974915;28;20069;-60
2021/10/09 01:04:39;;;;;;;149.27;29.65;;;11.90;92.80;;;;;;4963113;28;20413;-60
2021/10/09 01:07:06;;;;;;;124.70;29.08;;;12.00;92.90;;;;;;4967207;28;20054;-61
2021/10/09 01:09:33;;;;;;;148.07;29.10;;;12.00;92.90;;;;;;4960153;28;20129;-60
2021/10/09 01:12:00;;;;;;;114.88;25.98;;;12.00;93.00;;;;;;4958808;28;20046;-60
2021/10/09 01:14:27;;;;;;;164.07;26.63;;;12.00;93.10;;;;;;4618849;28;10000473;-60
2021/10/09 01:16:54;;;;;;;140.45;23.42;;;12.00;93.10;;;;;;4977992;28;20565;-61
2021/10/09 01:19:21;;;;;;;110.80;22.02;;;12.00;93.10;;;;;;4983464;28;20182;-59
2021/10/09 01:21:48;;;;;;;137.55;21.67;;;12.00;93.20;;;;;;4962355;28;20050;-60
2021/10/09 01:24:16;;;;;;;93.95;20.83;;;12.10;93.20;;;;;;4975386;28;20050;-60
2021/10/09 01:26:43;;;;;;;108.70;21.85;;;12.10;93.20;;;;;;4980973;28;20054;-60
2021/10/09 01:29:10;;;;;;;111.03;21.58;;;12.00;93.10;;;;;;4981669;28;20787;-59
2021/10/09 01:31:37;;;;;;;59.30;20.65;;;12.10;93.20;;;;;;4961032;28;20137;-60
2021/10/09 01:34:04;;;;;;;101.57;20.40;;;12.00;93.10;;;;;;4960824;28;20535;-60
2021/10/09 01:36:36;;;;;;;58.15;18.38;;;12.00;93.20;;;;;;4976282;28;20042;-60
2021/10/09 01:39:03;;;;;;;82.93;20.42;;;12.00;93.20;;;;;;4962126;28;20047;-61
2021/10/09 01:41:31;;;;;;;80.60;18.65;;;12.00;93.20;;;;;;4975099;28;20109;-60
2021/10/09 01:43:58;;;;;;;106.32;20.58;;;12.00;93.20;;;;;;4964674;28;20050;-59
2021/10/09 01:46:25;;;;;;;89.85;18.98;;;12.10;93.20;;;;;;4981861;28;20058;-60
2021/10/09 01:48:52;;;;;;;92.95;17.48;;;12.00;93.20;;;;;;4975116;28;20515;-62
2021/10/09 01:51:19;;;;;;;95.90;18.50;;;12.10;93.20;;;;;;4961704;28;20047;-60
2021/10/09 01:53:46;;;;;;;81.00;16.90;;;12.00;93.20;;;;;;4966561;28;20042;-61
2021/10/09 01:56:12;;;;;;;96.90;17.45;;;12.00;93.20;;;;;;4960458;28;20129;-59
2021/10/09 01:58:39;;;;;;;123.03;15.40;;;11.90;93.20;;;;;;4974694;28;20080;-61
2021/10/09 02:01:06;;;;;;;81.70;15.45;;;11.90;93.20;;;;;;4949602;28;20047;-60
2021/10/09 02:03:33;;;;;;;73.03;15.15;;;11.70;93.30;;;;;;4963473;28;20051;-61
2021/10/09 02:06:00;;;;;;;59.75;15.85;;;11.80;93.40;;;;;;4974150;28;20085;-60
2021/10/09 02:08:26;;;;;;;94.68;15.15;;;11.80;93.50;;;;;;4960167;28;20047;-60
2021/10/09 02:13:28;;;;;;;138.98;16.55;;;11.80;93.40;;;;;;4963019;28;20487;-59
2021/10/09 02:26:48;;;;;;;155.07;16.02;;;11.70;93.40;;;;;;4981603;28;20093;-60
2021/10/09 02:29:15;;;;;;;194.60;15.82;;;11.70;93.30;;;;;;4980489;28;20050;-59
2021/10/09 02:31:42;;;;;;;172.65;14.20;;;11.70;93.30;;;;;;4957630;28;20046;-62
2021/10/09 02:34:09;;;;;;;102.50;13.32;;;11.70;93.40;;;;;;4979144;28;20047;-60
2021/10/09 02:36:36;;;;;;;144.27;14.82;;;11.70;93.40;;;;;;4982799;28;20046;-61
2021/10/09 02:39:03;;;;;;;131.90;14.18;;;11.70;93.40;;;;;;4977541;28;20058;-59
2021/10/09 02:41:30;;;;;;;92.93;13.80;;;11.70;93.40;;;;;;4976644;28;20066;-60
2021/10/09 02:43:57;;;;;;;109.88;12.10;;;11.70;93.40;;;;;;4962740;28;20081;-60
2021/10/09 02:46:24;;;;;;;66.95;12.20;;;11.70;93.30;;;;;;4979245;28;20054;-60
2021/10/09 02:48:51;;;;;;;88.07;12.00;;;11.70;93.30;;;;;;4976032;28;20133;-60
2021/10/09 02:51:17;;;;;;;97.85;12.25;;;11.70;93.30;;;;;;4962358;28;20059;-60
2021/10/09 02:53:44;;;;;;;111.47;15.63;;;11.70;93.20;;;;;;4981072;28;20683;-60
2021/10/09 02:56:11;;;;;;;94.20;12.73;;;11.70;93.40;;;;;;4957937;28;20136;-60
2021/10/09 02:58:38;;;;;;;87.80;13.07;;;11.70;93.50;;;;;;4960114;28;20051;-60
2021/10/09 03:01:05;;;;;;;116.45;14.25;;;11.70;93.30;;;;;;4983157;28;20433;-60
2021/10/09 03:03:31;;;;;;;100.88;12.95;;;11.70;93.30;;;;;;4960775;28;20054;-60
2021/10/09 03:05:58;;;;;;;97.82;14.07;;;11.70;93.20;;;;;;4974826;28;20492;-59
2021/10/09 03:08:25;;;;;;;122.82;13.55;;;11.70;93.30;;;;;;4987366;28;20081;-62
2021/10/09 03:10:52;;;;;;;81.70;12.02;;;11.70;93.40;;;;;;4976963;28;20505;-61
2021/10/09 03:13:19;;;;;;;68.32;11.55;;;11.60;93.20;;;;;;4953240;28;20092;-61
2021/10/09 03:15:46;;;;;;;67.50;11.02;;;11.50;93.20;;;;;;4978509;28;20101;-61
2021/10/09 03:18:12;;;;;;;97.32;13.00;;;11.30;93.40;;;;;;4959607;28;20054;-65
2021/10/09 03:20:39;;;;;;;52.42;11.45;;;11.30;93.50;;;;;;4964961;28;20097;-61
2021/10/09 03:23:06;;;;;;;49.90;12.00;;;11.30;93.60;;;;;;4953241;28;20077;-60
2021/10/09 03:25:33;;;;;;;85.43;12.65;;;11.40;93.70;;;;;;4966040;28;20055;-60
2021/10/09 03:28:00;;;;;;;55.80;11.48;;;11.40;93.60;;;;;;4983125;28;20055;-60
2021/10/09 03:30:27;;;;;;;81.28;12.60;;;11.40;93.50;;;;;;4979618;28;20047;-60
2021/10/09 03:32:54;;;;;;;85.13;12.18;;;11.40;93.40;;;;;;4965246;28;20105;-60
2021/10/09 03:35:21;;;;;;;47.05;11.73;;;11.40;93.40;;;;;;4980389;28;20526;-61
2021/10/09 03:37:48;;;;;;;53.40;11.65;;;11.40;93.40;;;;;;4984404;28;20113;-60
2021/10/09 03:40:18;;;;;;;73.85;12.93;;;11.30;93.40;;;;;;4984960;28;20757;-61
2021/10/09 03:42:59;;;;;;;81.70;12.75;;;11.40;93.60;;;;;;4961650;28;20046;-61
2021/10/09 03:45:34;;;;;;;69.53;12.70;;;11.40;93.60;;;;;;4980418;28;20082;-60
2021/10/09 03:52:24;;;;;;;112.25;13.05;;;11.30;93.30;;;;;;4983178;28;20501;-62
2021/10/09 03:53:21;;;;;;;55.58;13.27;;;11.30;93.40;;;;;;4966222;28;20050;-60
2021/10/09 03:55:47;;;;;;;87.18;14.88;;;11.30;93.60;;;;;;4978842;28;20109;-60
2021/10/09 03:58:15;;;;;;;99.28;14.00;;;11.30;93.70;;;;;;4967383;28;20113;-61
2021/10/09 04:00:42;;;;;;;119.00;13.65;;;11.40;93.50;;;;;;4964959;28;20056;-60
2021/10/09 04:03:08;;;;;;;91.13;13.48;;;11.30;93.40;;;;;;4973296;28;20097;-60
2021/10/09 04:05:35;;;;;;;66.80;13.15;;;11.30;93.50;;;;;;4982355;28;20078;-60
2021/10/09 04:08:05;;;;;;;78.97;13.40;;;11.30;93.50;;;;;;4975836;28;20100;-60
2021/10/09 04:10:36;;;;;;;48.72;11.68;;;11.30;93.50;;;;;;4983676;28;20256;-60
2021/10/09 04:13:03;;;;;;;51.90;11.27;;;11.30;93.50;;;;;;4966885;28;20113;-60
2021/10/09 04:15:30;;;;;;;82.35;14.07;;;11.30;93.40;;;;;;4959958;28;20049;-60
2021/10/09 04:17:57;;;;;;;97.57;13.38;;;11.30;93.40;;;;;;4961249;28;20458;-60
2021/10/09 04:20:24;;;;;;;95.80;11.07;;;11.30;93.50;;;;;;4984294;28;20072;-60
2021/10/09 04:22:51;;;;;;;93.90;12.40;;;11.30;93.30;;;;;;4971588;28;20054;-60
2021/10/09 04:25:18;;;;;;;86.22;11.70;;;11.20;93.40;;;;;;4984616;28;20489;-61
2021/10/09 04:27:45;;;;;;;93.38;12.43;;;11.20;93.40;;;;;;4945697;28;20046;-64
2021/10/09 04:30:12;;;;;;;50.28;10.38;;;11.20;93.40;;;;;;4960441;28;20065;-60
2021/10/09 04:32:38;;;;;;;63.60;11.38;;;11.20;93.40;;;;;;4963968;28;20051;-60
2021/10/09 04:35:06;;;;;;;86.50;11.38;;;11.20;93.50;;;;;;4963948;28;20038;-60
2021/10/09 04:37:33;;;;;;;145.30;11.73;;;11.10;93.40;;;;;;4975780;28;20050;-61
2021/10/09 04:40:00;;;;;;;98.13;12.18;;;11.00;93.50;;;;;;4979547;28;20053;-59
2021/10/09 04:42:26;;;;;;;100.35;11.20;;;11.00;93.60;;;;;;4960290;28;20050;-59
2021/10/09 04:44:53;;;;;;;163.20;11.18;;;10.90;93.50;;;;;;4982688;28;20046;-60
2021/10/09 04:47:20;;;;;;;81.90;11.45;;;11.00;93.50;;;;;;4974332;28;20059;-60
2021/10/09 04:49:47;;;;;;;94.40;10.65;;;10.90;93.70;;;;;;4984773;28;20042;-61
2021/10/09 04:52:14;;;;;;;75.18;10.10;;;10.90;93.60;;;;;;4961801;28;20054;-60
2021/10/09 04:54:41;;;;;;;107.72;11.13;;;10.90;93.70;;;;;;4967971;28;20042;-61
2021/10/09 04:57:07;;;;;;;60.85;11.23;;;10.90;93.70;;;;;;4960155;28;20073;-60
2021/10/09 04:59:34;;;;;;;127.47;11.68;;;10.90;93.60;;;;;;4976890;28;20100;-60
2021/10/09 05:02:01;;;;;;;165.07;12.32;;;10.90;93.60;;;;;;4966242;28;20117;-60
2021/10/09 05:04:28;;;;;;;124.95;14.32;;;10.80;93.60;;;;;;4981786;28;20046;-61
2021/10/09 05:06:55;;;;;;;157.90;13.23;;;10.80;93.80;;;;;;4977063;28;20097;-60
2021/10/09 05:09:22;;;;;;;140.05;14.23;;;10.80;94.00;;;;;;4967461;28;20097;-59
2021/10/09 05:11:48;;;;;;;121.43;11.45;;;10.90;94.00;;;;;;4984302;28;20195;-61
2021/10/09 05:14:15;;;;;;;129.30;13.27;;;11.00;93.90;;;;;;4978840;28;20128;-59
2021/10/09 05:16:42;;;;;;;146.27;11.98;;;11.00;93.80;;;;;;4965780;28;20050;-60
2021/10/09 05:19:09;;;;;;;102.75;12.98;;;11.00;93.80;;;;;;4978245;28;20121;-60
2021/10/09 05:21:36;;;;;;;108.13;11.38;;;10.90;93.60;;;;;;4978759;28;20082;-60
2021/10/09 05:24:03;;;;;;;102.15;10.20;;;10.90;93.50;;;;;;4981173;28;20093;-60
2021/10/09 05:26:31;;;;;;;124.95;10.75;;;10.80;93.60;;;;;;4960805;28;20050;-61
2021/10/09 05:28:58;;;;;;;134.68;12.82;;;10.80;93.70;;;;;;4959319;28;20468;-60
2021/10/09 05:31:30;;;;;;;101.47;10.95;;;10.80;93.70;;;;;;4964643;28;20537;-59
2021/10/09 05:33:57;;;;;;;111.50;12.80;;;10.80;94.10;;;;;;4964097;28;20054;-60
2021/10/09 05:36:24;;;;;;;113.10;12.10;;;10.70;93.90;;;;;;4964662;28;20082;-60
2021/10/09 05:38:51;;;;;;;60.92;11.30;;;10.70;93.80;;;;;;4965715;28;20129;-59
2021/10/09 05:41:18;;;;;;;83.55;11.00;;;10.70;93.80;;;;;;4956575;28;20528;-59
2021/10/09 05:43:46;;;;;;;56.25;10.05;;;10.60;93.60;;;;;;4963610;28;20047;-60
2021/10/09 05:46:13;;;;;;;86.57;11.55;;;10.50;93.80;;;;;;4962925;28;20513;-59
2021/10/09 05:48:41;;;;;;;65.32;10.23;;;10.40;93.80;;;;;;4965053;28;20054;-60
2021/10/09 05:54:12;;;;;;;62.47;9.30;;;10.30;93.80;;;;;;4965491;28;20461;-59
2021/10/09 05:56:54;;;;;;;53.38;9.95;;;10.30;94.00;;;;;;4973288;28;20489;-60
2021/10/09 06:32:31;;;;;;;100.22;10.55;;;10.40;93.60;;;;;;4978934;28;20142;-61
2021/10/09 06:43:52;;;;;;;78.78;11.00;;;10.30;94.00;;;;;;4973624;28;20085;-60
2021/10/09 06:59:42;;;;;;;63.97;8.82;;;10.50;93.80;;;;;;4982024;28;20121;-60
2021/10/09 07:02:11;;;;;;;83.75;9.75;;;10.50;93.90;;;;;;4984233;28;20137;-60
2021/10/09 07:04:38;;;;;;;89.28;9.65;;;10.40;93.80;;;;;;4979588;28;20070;-60
2021/10/09 07:07:07;;;;;;;103.32;10.00;;;10.40;93.80;;;;;;4986890;28;20054;-59
2021/10/09 07:09:34;;;;;;;72.65;9.93;;;10.40;93.90;;;;;;4977526;28;20576;-60
2021/10/09 07:12:01;;;;;;;117.10;11.35;;;10.40;93.90;;;;;;4980910;28;20089;-60
2021/10/09 07:14:27;;;;;;;51.10;10.45;;;10.30;93.90;;;;;;4986609;28;20042;-60
2021/10/09 07:16:54;;;;;;;93.95;11.40;;;10.40;94.20;;;;;;4979714;28;20090;-59
2021/10/09 07:19:21;;;;;;;87.28;10.30;;;10.40;94.20;;;;;;4977138;28;20085;-59
2021/10/09 07:21:48;;;;;;;76.95;10.80;;;10.50;94.10;;;;;;4986388;28;20043;-62
2021/10/09 07:24:34;;;;;;;93.70;10.50;;;10.50;94.30;;;;;;4973094;28;20424;-60
2021/10/09 07:27:08;;;;;;;92.40;11.00;;;10.70;94.30;;;;;;4985421;28;20104;-60
2021/10/09 07:29:35;;;;;;;131.20;11.40;;;10.80;94.30;;;;;;4617195;28;10000105;-61
2021/10/09 07:32:02;;;;;;;79.50;11.10;;;10.80;94.20;;;;;;4974418;28;20148;-61
2021/10/09 07:34:28;;;;;;;92.00;13.30;;;10.80;94.00;;;;;;4971947;28;20054;-61
2021/10/09 07:36:55;;;;;;;52.40;11.90;;;10.70;94.00;;;;;;4952993;28;20043;-60
2021/10/09 07:39:22;;;;;;;96.82;12.05;;;10.80;94.30;;;;;;4969278;28;20501;-60
2021/10/09 07:41:51;;;;;;;98.35;12.80;;;10.80;94.20;;;;;;4969643;28;20502;-60
2021/10/09 07:44:21;;;;;;;82.03;11.15;;;10.80;94.00;;;;;;4967732;28;20054;-61
2021/10/09 07:46:48;;;;;;;134.63;12.23;;;10.70;93.90;;;;;;4967260;28;20137;-57
2021/10/09 07:49:15;;;;;;;97.05;13.25;;;10.60;94.00;;;;;;4979535;28;20054;-61
2021/10/09 07:51:42;;;;;;;92.57;13.48;;;10.60;94.40;;;;;;4977114;28;20074;-59
2021/10/09 07:54:10;;;;;;;93.90;12.63;;;10.70;94.20;;;;;;4965596;28;20051;-59
2021/10/09 07:56:37;;;;;;;60.97;14.43;;;10.80;94.40;;;;;;4971624;28;20770;-60
2021/10/09 07:59:03;;;;;;;84.47;14.23;;;10.90;94.40;;;;;;4977217;28;20577;-60
2021/10/09 08:01:33;;;;;;;90.15;13.48;;;11.00;94.40;;;;;;4979764;28;20079;-60
2021/10/09 08:04:13;;;;;;;120.47;14.93;;;11.10;94.30;;;;;;4966071;28;20051;-59
2021/10/09 08:06:40;;;;;;;92.18;12.82;;;11.10;94.10;;;;;;4968268;28;20043;-58
2021/10/09 08:09:07;;;;;;;65.25;13.30;;;11.20;94.10;;;;;;4962123;28;20061;-67
2021/10/09 08:11:34;;;;;;;52.60;13.85;;;11.20;94.20;;;;;;4949117;28;20066;-63
2021/10/09 08:14:03;;;;;;;62.13;14.50;;;11.20;94.20;;;;;;4965527;28;20047;-60
2021/10/09 08:16:30;;;;;;;58.50;15.45;;;11.30;94.20;;;;;;4968071;28;20074;-59
2021/10/09 08:19:01;;;;;;;64.90;14.35;;;11.30;94.10;;;;;;4961898;28;20055;-59
2021/10/09 08:21:29;;;;;;;76.20;14.10;;;11.20;94.10;;;;;;4981752;28;20082;-59
2021/10/09 08:24:36;;;;;;;76.00;14.82;;;11.20;93.90;;;;;;4952287;28;20105;-59
2021/10/09 08:40:11;;;;;;;100.85;15.20;;;11.10;94.30;;;;;;4971328;28;20502;-59
2021/10/09 08:42:38;;;;;;;151.00;16.20;;;11.10;94.30;;;;;;4979072;28;20043;-59
2021/10/09 08:45:06;;;;;;;56.50;15.98;;;11.20;94.30;;;;;;4951987;28;20047;-60
2021/10/09 08:47:36;;;;;;;83.53;17.77;;;11.20;94.50;;;;;;4942923;28;20057;-64
2021/10/09 08:50:05;;;;;;;79.53;17.70;;;11.40;94.60;;;;;;4954783;28;20077;-60
2021/10/09 08:52:32;;;;;;;74.90;16.30;;;11.50;94.40;;;;;;4973004;28;20422;-60
2021/10/09 08:55:16;;;;;;;52.75;17.80;;;11.50;94.40;;;;;;4960034;28;20556;-60
2021/10/09 08:57:43;;;;;;;52.95;17.42;;;11.50;94.20;;;;;;4965295;28;20836;-59
2021/10/09 09:00:12;;;;;;;51.00;16.30;;;11.60;94.30;;;;;;4972028;28;20073;-59
2021/10/09 09:02:46;;;;;;;44.92;17.27;;;11.80;94.40;;;;;;4971852;28;20050;-59
2021/10/09 09:39:07;;;;;;;46.65;20.50;;;12.50;94.00;;;;;;4965469;28;20138;-60
2021/10/09 09:41:48;;;;;;;47.30;23.35;;;12.60;94.00;;;;;;4964258;28;20129;-61
2021/10/09 09:44:16;;;;;;;47.20;22.42;;;12.70;94.00;;;;;;4971678;28;20130;-62
2021/10/09 09:47:03;;;;;;;53.05;24.55;;;12.90;94.00;;;;;;4979146;28;20231;-60
2021/10/09 09:49:50;;;;;;;48.45;24.65;;;13.00;93.70;;;;;;4980223;28;20050;-60
2021/10/09 09:52:16;;;;;;;53.38;25.10;;;13.00;93.60;;;;;;4975194;28;20133;-59
2021/10/09 09:54:43;;;;;;;51.78;24.80;;;13.10;93.70;;;;;;4961176;28;20057;-59
2021/10/09 09:57:11;;;;;;;48.47;23.50;;;13.20;93.50;;;;;;4961045;28;20053;-59
2021/10/09 09:59:38;;;;;;;49.65;25.33;;;13.30;93.50;;;;;;4978073;28;20089;-60
2021/10/09 10:02:05;;;;;;;55.88;26.25;;;13.30;93.50;;;;;;4972268;28;20739;-59
2021/10/09 10:04:35;;;;;;;46.17;26.13;;;13.30;93.40;;;;;;4977961;28;20175;-59
2021/10/09 10:07:02;;;;;;;47.55;26.42;;;13.40;93.30;;;;;;4955029;28;20051;-59
2021/10/09 10:09:30;;;;;;;50.92;24.90;;;13.50;93.20;;;;;;4974719;28;20086;-59
2021/10/09 10:11:58;;;;;;;51.33;24.48;;;13.60;93.40;;;;;;4962377;28;20130;-59
2021/10/09 10:14:28;;;;;;;48.25;25.05;;;13.70;93.10;;;;;;4958150;28;20100;-59
2021/10/09 10:16:56;;;;;;;42.42;23.58;;;13.70;93.10;;;;;;4971211;28;20134;-61
2021/10/09 10:19:51;;;;;;;48.72;24.73;;;13.80;92.80;;;;;;4959743;28;20055;-61
2021/10/09 10:22:40;;;;;;;47.80;25.45;;;13.70;92.90;;;;;;4970530;28;20046;-61
2021/10/09 10:25:27;;;;;;;46.85;24.35;;;13.50;92.60;;;;;;4963224;28;20082;-59
2021/10/09 10:28:05;;;;;;;48.78;26.10;;;13.50;92.50;;;;;;4966880;28;20078;-59
2021/10/09 10:30:37;;;;;;;47.10;25.70;;;13.50;92.70;;;;;;4970128;28;20039;-59
2021/10/09 10:33:04;;;;;;;62.53;28.10;;;13.60;92.70;;;;;;4973199;28;20157;-60
2021/10/09 10:35:34;;;;;;;55.75;28.52;;;13.60;92.70;;;;;;4970860;28;20050;-59
2021/10/09 10:38:08;;;;;;;56.92;28.25;;;13.60;92.80;;;;;;4972531;28;20553;-60
2021/10/09 10:40:49;;;;;;;51.58;27.52;;;13.70;92.80;;;;;;4969561;28;20082;-61
2021/10/09 10:46:00;;;;;;;55.85;27.70;;;13.70;92.80;;;;;;4977462;28;20050;-60
2021/10/09 10:48:55;;;;;;;63.13;28.50;;;13.80;92.80;;;;;;4973977;28;20050;-60
2021/10/09 10:57:03;;;;;;;55.70;28.08;;;14.10;92.50;;;;;;4956965;28;20042;-59
2021/10/09 10:59:49;;;;;;;58.85;29.25;;;14.20;92.50;;;;;;4972501;28;20082;-59
2021/10/09 11:02:17;;;;;;;57.80;30.67;;;14.30;92.50;;;;;;4972956;28;20058;-59
2021/10/09 11:04:57;;;;;;;56.17;28.90;;;14.40;92.40;;;;;;4963098;28;20047;-61
2021/10/09 11:07:27;;;;;;;60.88;30.52;;;14.50;92.20;;;;;;4964684;28;20130;-61
2021/10/09 11:09:59;;;;;;;48.03;27.95;;;14.60;92.30;;;;;;4976211;28;20572;-59
2021/10/09 11:12:27;;;;;;;49.67;28.52;;;14.70;92.10;;;;;;4965821;28;20078;-61
2021/10/09 11:15:01;;;;;;;53.17;29.50;;;14.80;92.10;;;;;;4969817;28;20058;-60
2021/10/09 11:17:37;;;;;;;55.75;28.17;;;14.90;92.00;;;;;;4972380;28;20090;-60
2021/10/09 11:20:21;;;;;;;52.05;28.27;;;15.00;92.00;;;;;;4978618;28;20059;-59
2021/10/09 11:22:49;;;;;;;57.30;29.98;;;15.10;91.70;;;;;;4978958;28;20051;-60
2021/10/09 11:25:33;;;;;;;48.25;29.45;;;15.30;91.80;;;;;;4967711;28;20469;-59
2021/10/09 11:28:04;;;;;;;50.45;28.35;;;15.40;90.40;;;;;;4972911;28;20130;-59
2021/10/09 11:30:32;;;;;;;50.17;28.38;;;15.50;91.40;;;;;;4603238;28;10000075;-59
2021/10/09 11:32:59;;;;;;;48.15;29.45;;;15.60;91.40;;;;;;4979134;28;20043;-59
2021/10/09 11:35:40;;;;;;;46.25;26.42;;;15.70;91.50;;;;;;4971377;28;20157;-60
2021/10/09 11:38:33;;;;;;;43.75;28.02;;;15.80;90.60;;;;;;4976615;28;20117;-59
2021/10/09 11:41:09;;;;;;;43.15;26.55;;;16.00;90.40;;;;;;4985168;28;20047;-58
2021/10/09 11:43:57;;;;;;;52.33;28.27;;;16.10;91.10;;;;;;4975351;28;20119;-59
2021/10/09 11:46:52;;;;;;;46.78;27.85;;;16.20;91.00;;;;;;4969044;28;20086;-59
2021/10/09 11:55:17;;;;;;;38.72;23.70;;;16.40;87.90;;;;;;4975808;28;20054;-59
2021/10/09 11:57:44;;;;;;;35.28;22.05;;;16.40;89.60;;;;;;4966382;28;20051;-59
2021/10/09 12:00:29;;;;;;;32.38;20.48;;;16.40;89.70;;;;;;4975063;28;20054;-58
2021/10/09 12:03:33;;;;;;;33.83;21.65;;;16.40;86.60;;;;;;4958738;28;20050;-59
2021/10/09 12:06:06;;;;;;;29.35;20.85;;;16.40;88.40;;;;;;4948919;28;20046;-59
2021/10/09 12:08:40;;;;;;;33.35;22.50;;;16.40;88.90;;;;;;4972310;28;20130;-60
2021/10/09 12:11:10;;;;;;;31.65;20.05;;;16.50;88.80;;;;;;4969618;28;20133;-59
2021/10/09 12:13:51;;;;;;;33.17;22.25;;;16.60;89.10;;;;;;4969669;28;20051;-57
2021/10/09 12:16:22;;;;;;;35.60;22.05;;;16.70;85.80;;;;;;4977670;28;20093;-59
2021/10/09 12:18:54;;;;;;;36.50;21.33;;;16.80;86.90;;;;;;4963450;28;20050;-58
2021/10/09 12:21:26;;;;;;;35.28;22.67;;;16.80;86.40;;;;;;4961468;28;20514;-59
2021/10/09 12:23:53;;;;;;;36.25;21.70;;;16.80;87.30;;;;;;4967902;28;20054;-59
2021/10/09 12:26:21;;;;;;;43.17;22.38;;;16.80;87.70;;;;;;4952372;28;20057;-58
2021/10/09 12:29:06;;;;;;;38.85;22.52;;;16.80;87.50;;;;;;4966407;28;20130;-57
2021/10/09 12:31:35;;;;;;;41.67;24.45;;;16.80;85.10;;;;;;4968220;28;20074;-58
2021/10/09 12:34:02;;;;;;;37.65;23.40;;;16.90;87.60;;;;;;4964351;28;20057;-59
2021/10/09 12:39:23;;;;;;;34.88;19.80;;;17.10;87.00;;;;;;4967203;28;20054;-59
2021/10/09 12:41:50;;;;;;;33.95;20.90;;;17.00;83.60;;;;;;4969465;28;20157;-59
2021/10/09 12:44:17;;;;;;;29.95;19.55;;;17.00;85.70;;;;;;4963792;28;20074;-57
2021/10/09 12:46:45;;;;;;;29.27;19.42;;;17.00;85.90;;;;;;4966179;28;20105;-57
2021/10/09 12:49:12;;;;;;;37.10;21.52;;;17.00;85.50;;;;;;4946443;28;20532;-57
2021/10/09 12:51:39;;;;;;;39.22;21.75;;;17.00;85.50;;;;;;4965962;28;20081;-58
2021/10/09 12:54:07;;;;;;;30.67;19.88;;;17.10;85.40;;;;;;4964395;28;20078;-57
2021/10/09 12:56:34;;;;;;;32.42;21.88;;;17.10;85.20;;;;;;4965232;28;20133;-57
2021/10/09 12:59:01;;;;;;;32.63;22.13;;;17.10;85.20;;;;;;4965952;28;20058;-57
2021/10/09 13:01:28;;;;;;;35.22;23.63;;;17.10;85.00;;;;;;4963573;28;20047;-57
2021/10/09 13:03:56;;;;;;;38.10;22.42;;;17.10;85.10;;;;;;4949116;28;20501;-57
2021/10/09 13:06:28;;;;;;;35.53;23.70;;;17.10;84.60;;;;;;4947208;28;20092;-57
2021/10/09 13:09:05;;;;;;;29.08;19.45;;;17.10;84.80;;;;;;4943025;28;20050;-58
2021/10/09 13:11:44;;;;;;;31.42;20.00;;;17.20;83.50;;;;;;4966336;28;20149;-59
2021/10/09 13:14:10;;;;;;;36.75;21.58;;;17.30;84.30;;;;;;4962549;28;20058;-57
2021/10/09 13:16:37;;;;;;;30.20;19.30;;;17.30;83.50;;;;;;4962938;28;20105;-58
2021/10/09 13:19:05;;;;;;;31.80;18.50;;;17.20;83.30;;;;;;4967544;28;20046;-58
2021/10/09 13:21:32;;;;;;;26.05;18.42;;;17.20;83.20;;;;;;4964581;28;20391;-58
2021/10/09 13:23:59;;;;;;;32.10;21.05;;;17.10;83.10;;;;;;4947556;28;20675;-58
2021/10/09 13:26:25;;;;;;;25.15;17.52;;;17.10;83.40;;;;;;4967200;28;20069;-58
2021/10/09 13:28:52;;;;;;;29.70;19.63;;;17.10;83.40;;;;;;4966836;28;20864;-57
2021/10/09 13:31:20;;;;;;;31.58;20.52;;;17.10;83.80;;;;;;4964642;28;20597;-58
2021/10/09 13:33:47;;;;;;;30.30;17.92;;;17.10;83.40;;;;;;4968308;28;20150;-57
2021/10/09 13:36:15;;;;;;;31.67;19.00;;;17.10;83.60;;;;;;4964960;28;20704;-56
2021/10/09 13:38:44;;;;;;;29.35;19.77;;;17.10;83.50;;;;;;4966259;28;20121;-59
2021/10/09 13:41:11;;;;;;;23.38;16.98;;;17.20;83.30;;;;;;4967041;28;20109;-58
2021/10/09 13:43:38;;;;;;;24.17;15.43;;;17.40;83.00;;;;;;4969210;28;20482;-58
2021/10/09 13:46:05;;;;;;;23.52;15.15;;;17.40;82.60;;;;;;4965118;28;20058;-57
2021/10/09 13:48:32;;;;;;;22.27;14.45;;;17.50;82.50;;;;;;4963929;28;20529;-57
2021/10/09 13:50:59;;;;;;;19.73;13.55;;;17.60;82.20;;;;;;4967393;28;20146;-58
2021/10/09 13:53:26;;;;;;;19.00;12.75;;;17.60;81.20;;;;;;4966470;28;20074;-57
2021/10/09 13:55:53;;;;;;;22.65;13.30;;;17.60;81.60;;;;;;4941538;28;20139;-57
2021/10/09 13:58:20;;;;;;;21.88;12.93;;;17.70;80.80;;;;;;4966048;28;20078;-56
2021/10/09 14:00:47;;;;;;;18.40;12.85;;;17.70;81.00;;;;;;4965413;28;20568;-57
2021/10/09 14:03:14;;;;;;;20.10;12.30;;;17.80;81.10;;;;;;4964763;28;20502;-57
2021/10/09 14:05:41;;;;;;;19.95;13.32;;;17.90;80.40;;;;;;4966402;28;20086;-58
2021/10/09 14:08:08;;;;;;;22.52;15.15;;;17.90;80.20;;;;;;4968009;28;20488;-59
2021/10/09 14:10:35;;;;;;;22.38;13.57;;;17.90;79.80;;;;;;4946036;28;20066;-56
2021/10/09 14:13:03;;;;;;;19.92;13.45;;;17.80;79.80;;;;;;4964457;28;20565;-55
2021/10/09 14:15:31;;;;;;;20.30;14.18;;;17.90;80.00;;;;;;4967076;28;20491;-57
2021/10/09 14:17:57;;;;;;;25.50;13.73;;;17.90;79.50;;;;;;4620293;28;10000187;-57
2021/10/09 14:20:27;;;;;;;17.80;13.27;;;18.00;79.80;;;;;;4965241;28;20082;-56
2021/10/09 14:22:54;;;;;;;18.13;13.00;;;18.10;78.60;;;;;;4621256;28;10000812;-58
2021/10/09 14:25:21;;;;;;;23.00;13.77;;;18.20;79.00;;;;;;4963052;28;20101;-58
2021/10/09 14:27:48;;;;;;;24.38;13.63;;;18.30;77.90;;;;;;4962744;28;20051;-59
2021/10/09 14:30:15;;;;;;;19.05;11.63;;;18.30;76.80;;;;;;4965344;28;20055;-58
2021/10/09 14:32:42;;;;;;;18.90;11.07;;;18.40;77.40;;;;;;4964701;28;20074;-57
2021/10/09 14:35:09;;;;;;;21.40;13.00;;;18.20;76.50;;;;;;4964778;28;20149;-58
2021/10/09 14:37:40;;;;;;;16.85;11.85;;;18.10;77.00;;;;;;4971229;28;20043;-59
2021/10/09 14:40:07;;;;;;;21.13;13.05;;;18.10;77.20;;;;;;4971623;28;20132;-58
2021/10/09 14:42:34;;;;;;;20.63;12.80;;;18.10;77.40;;;;;;4970989;28;20678;-56
2021/10/09 14:45:01;;;;;;;27.42;14.15;;;18.10;77.40;;;;;;4970897;28;20050;-62
2021/10/09 14:47:38;;;;;;;19.38;12.88;;;18.00;77.20;;;;;;4968873;28;20090;-56
2021/10/09 15:02:01;;;;;;;18.05;11.15;;;20.80;73.00;;;;;;4961293;28;20065;-56
2021/10/09 15:18:07;;;;;;;15.98;11.65;;;22.70;66.80;;;;;;4967772;28;20055;-59
2021/10/09 15:20:33;;;;;;;13.98;11.27;;;23.00;66.10;;;;;;4969540;28;20043;-57